Ashfield, Pennsylvania
Current Conditions -  °F | °C
As of 7:51 PM on Friday 31 Oct 2014 (Local Time) from KABE Reporting Station
Overcast Overcast  
Wind Chill: 46°   Ceiling: 4500
Heat Index: 48°   Visibility: 10mi
Dew Point: 36°   Wind: 5mph
Humidity: 63%   Direction: 30°NNE
Pressure: 29.9"   Gusts: NA
Location:  40.78°N, 75.71°W
Report Text: KABE 312351Z 03004KT 10SM OVC045 09/02 A2990 RMK AO2 SLP128 T00890022 10122 20089 50004
Loading
Personal Weather Stations






























Interactive Weather Map
Tropical Storm Tracking
New forecast layout! Learn more

10-Day Weather Forecast

Advertisements
Track Severe Weather on mobile